sensor_id;sensor_type;location;lat;lon;timestamp;pressure;altitude;pressure_sealevel;temperature;humidity
10732;BME280;5417;42.686;23.244;2022-12-18T00:00:49;95030.81;;;9.67;74.39
10732;BME280;5417;42.686;23.244;2022-12-18T00:03:15;95040.50;;;9.65;74.63
10732;BME280;5417;42.686;23.244;2022-12-18T00:05:46;95045.28;;;9.59;74.72
10732;BME280;5417;42.686;23.244;2022-12-18T00:08:14;95044.34;;;9.60;75.03
10732;BME280;5417;42.686;23.244;2022-12-18T00:10:43;95052.22;;;9.58;74.86
10732;BME280;5417;42.686;23.244;2022-12-18T00:13:12;95033.94;;;9.47;75.31
10732;BME280;5417;42.686;23.244;2022-12-18T00:15:39;95050.88;;;9.53;75.49
10732;BME280;5417;42.686;23.244;2022-12-18T00:18:06;95045.69;;;9.53;75.45
10732;BME280;5417;42.686;23.244;2022-12-18T00:20:35;95050.88;;;9.53;75.16
10732;BME280;5417;42.686;23.244;2022-12-18T00:25:49;95058.97;;;9.48;74.91
10732;BME280;5417;42.686;23.244;2022-12-18T00:28:16;95064.28;;;9.46;74.38
10732;BME280;5417;42.686;23.244;2022-12-18T00:30:44;95057.84;;;9.39;75.34
10732;BME280;5417;42.686;23.244;2022-12-18T00:33:19;95071.34;;;9.44;75.60
10732;BME280;5417;42.686;23.244;2022-12-18T00:35:48;95073.84;;;9.46;76.18
10732;BME280;5417;42.686;23.244;2022-12-18T00:38:15;95074.06;;;9.43;75.68
10732;BME280;5417;42.686;23.244;2022-12-18T00:40:43;95075.63;;;9.45;76.07
10732;BME280;5417;42.686;23.244;2022-12-18T00:43:13;95077.81;;;9.52;74.14
10732;BME280;5417;42.686;23.244;2022-12-18T00:45:39;95074.97;;;9.42;74.35
10732;BME280;5417;42.686;23.244;2022-12-18T00:48:06;95081.06;;;9.28;75.00
10732;BME280;5417;42.686;23.244;2022-12-18T00:50:33;95078.97;;;9.21;75.21
10732;BME280;5417;42.686;23.244;2022-12-18T00:53:00;95080.09;;;9.16;76.08
10732;BME280;5417;42.686;23.244;2022-12-18T00:55:27;95086.31;;;9.14;76.17
10732;BME280;5417;42.686;23.244;2022-12-18T00:57:54;95091.41;;;9.15;76.62
10732;BME280;5417;42.686;23.244;2022-12-18T01:00:22;95082.91;;;9.13;76.20
10732;BME280;5417;42.686;23.244;2022-12-18T01:02:49;95098.19;;;9.18;75.29
10732;BME280;5417;42.686;23.244;2022-12-18T01:05:16;95097.34;;;9.17;75.83
10732;BME280;5417;42.686;23.244;2022-12-18T01:07:50;95094.84;;;9.16;75.20
10732;BME280;5417;42.686;23.244;2022-12-18T01:10:17;95093.09;;;9.16;74.67
10732;BME280;5417;42.686;23.244;2022-12-18T01:12:44;95105.34;;;9.14;73.86
10732;BME280;5417;42.686;23.244;2022-12-18T01:15:14;95102.19;;;9.09;74.00
10732;BME280;5417;42.686;23.244;2022-12-18T01:17:51;95109.66;;;9.01;73.66
10732;BME280;5417;42.686;23.244;2022-12-18T01:20:20;95108.00;;;9.00;74.02
10732;BME280;5417;42.686;23.244;2022-12-18T01:22:47;95108.88;;;9.13;72.69
10732;BME280;5417;42.686;23.244;2022-12-18T01:25:14;95106.44;;;8.98;73.75
10732;BME280;5417;42.686;23.244;2022-12-18T01:27:40;95109.31;;;8.93;73.31
10732;BME280;5417;42.686;23.244;2022-12-18T01:30:08;95102.03;;;8.85;73.40
10732;BME280;5417;42.686;23.244;2022-12-18T01:32:37;95113.41;;;8.83;73.11
10732;BME280;5417;42.686;23.244;2022-12-18T01:35:08;95111.63;;;8.83;73.81
10732;BME280;5417;42.686;23.244;2022-12-18T01:37:34;95126.75;;;8.77;73.89
10732;BME280;5417;42.686;23.244;2022-12-18T01:40:02;95124.63;;;8.83;74.61
10732;BME280;5417;42.686;23.244;2022-12-18T01:42:29;95121.19;;;8.83;73.96
10732;BME280;5417;42.686;23.244;2022-12-18T01:45:09;95122.94;;;8.82;73.99
10732;BME280;5417;42.686;23.244;2022-12-18T01:47:50;95107.94;;;8.73;74.00
10732;BME280;5417;42.686;23.244;2022-12-18T01:50:22;95131.50;;;8.84;73.94
10732;BME280;5417;42.686;23.244;2022-12-18T01:52:52;95123.88;;;8.81;74.18
10732;BME280;5417;42.686;23.244;2022-12-18T01:55:23;95130.63;;;8.84;73.54
10732;BME280;5417;42.686;23.244;2022-12-18T01:57:52;95124.81;;;8.80;73.29
10732;BME280;5417;42.686;23.244;2022-12-18T02:00:22;95133.22;;;8.84;73.54
10732;BME280;5417;42.686;23.244;2022-12-18T02:02:49;95128.44;;;8.78;73.73
10732;BME280;5417;42.686;23.244;2022-12-18T02:05:18;95133.22;;;8.84;73.57
10732;BME280;5417;42.686;23.244;2022-12-18T02:07:58;95140.28;;;8.82;73.70
10732;BME280;5417;42.686;23.244;2022-12-18T02:10:31;95138.72;;;8.79;74.08
10732;BME280;5417;42.686;23.244;2022-12-18T02:13:08;95141.22;;;8.81;74.01
10732;BME280;5417;42.686;23.244;2022-12-18T02:15:41;95138.91;;;8.76;73.78
10732;BME280;5417;42.686;23.244;2022-12-18T02:18:12;95145.84;;;8.76;73.70
10732;BME280;5417;42.686;23.244;2022-12-18T02:20:45;95146.88;;;8.88;71.73
10732;BME280;5417;42.686;23.244;2022-12-18T02:23:23;95150.94;;;8.77;72.47
10732;BME280;5417;42.686;23.244;2022-12-18T02:26:02;95153.00;;;8.72;73.27
10732;BME280;5417;42.686;23.244;2022-12-18T02:28:34;95162.38;;;8.61;73.14
10732;BME280;5417;42.686;23.244;2022-12-18T02:31:04;95153.75;;;8.60;74.04
10732;BME280;5417;42.686;23.244;2022-12-18T02:33:34;95153.22;;;8.55;73.04
10732;BME280;5417;42.686;23.244;2022-12-18T02:36:03;95155.81;;;8.55;72.50
10732;BME280;5417;42.686;23.244;2022-12-18T02:38:31;95156.75;;;8.54;73.18
10732;BME280;5417;42.686;23.244;2022-12-18T02:41:00;95166.56;;;8.49;73.09
10732;BME280;5417;42.686;23.244;2022-12-18T02:43:27;95162.94;;;8.51;73.44
10732;BME280;5417;42.686;23.244;2022-12-18T02:45:57;95157.94;;;8.48;74.05
10732;BME280;5417;42.686;23.244;2022-12-18T02:48:28;95167.84;;;8.56;72.69
10732;BME280;5417;42.686;23.244;2022-12-18T02:51:03;95163.31;;;8.45;73.53
10732;BME280;5417;42.686;23.244;2022-12-18T02:53:39;95173.13;;;8.54;72.79
10732;BME280;5417;42.686;23.244;2022-12-18T02:56:17;95172.78;;;8.46;72.65
10732;BME280;5417;42.686;23.244;2022-12-18T02:58:52;95162.03;;;8.38;73.51
10732;BME280;5417;42.686;23.244;2022-12-18T03:01:28;95168.31;;;8.48;73.06
10732;BME280;5417;42.686;23.244;2022-12-18T03:03:59;95174.81;;;8.41;73.01
10732;BME280;5417;42.686;23.244;2022-12-18T03:06:32;95173.78;;;8.44;72.20
10732;BME280;5417;42.686;23.244;2022-12-18T03:09:02;95181.38;;;8.33;73.45
10732;BME280;5417;42.686;23.244;2022-12-18T03:11:37;95179.66;;;8.32;72.65
10732;BME280;5417;42.686;23.244;2022-12-18T03:14:25;95182.44;;;8.29;73.22
10732;BME280;5417;42.686;23.244;2022-12-18T03:16:54;95183.56;;;8.24;73.39
10732;BME280;5417;42.686;23.244;2022-12-18T03:19:27;95189.66;;;8.23;73.32
10732;BME280;5417;42.686;23.244;2022-12-18T03:21:56;95193.19;;;8.22;72.49
10732;BME280;5417;42.686;23.244;2022-12-18T03:24:26;95189.81;;;8.36;71.72
10732;BME280;5417;42.686;23.244;2022-12-18T03:26:58;95190.59;;;8.22;71.59
10732;BME280;5417;42.686;23.244;2022-12-18T03:29:33;95194.28;;;8.18;73.12
10732;BME280;5417;42.686;23.244;2022-12-18T03:32:04;95204.22;;;8.26;72.16
10732;BME280;5417;42.686;23.244;2022-12-18T03:34:35;95201.81;;;8.23;72.69
10732;BME280;5417;42.686;23.244;2022-12-18T03:37:04;95204.66;;;8.18;71.65
10732;BME280;5417;42.686;23.244;2022-12-18T03:39:31;95202.81;;;8.06;72.65
10732;BME280;5417;42.686;23.244;2022-12-18T03:42:05;95223.25;;;7.97;72.15
10732;BME280;5417;42.686;23.244;2022-12-18T03:44:35;95225.94;;;7.79;72.99
10732;BME280;5417;42.686;23.244;2022-12-18T03:47:09;95228.81;;;7.75;72.92
10732;BME280;5417;42.686;23.244;2022-12-18T03:49:45;95229.81;;;7.72;72.71
10732;BME280;5417;42.686;23.244;2022-12-18T03:52:18;95226.31;;;7.73;72.92
10732;BME280;5417;42.686;23.244;2022-12-18T03:54:48;95232.88;;;7.79;73.39
10732;BME280;5417;42.686;23.244;2022-12-18T03:57:20;95224.06;;;7.67;73.22
10732;BME280;5417;42.686;23.244;2022-12-18T03:59:50;95227.22;;;7.72;73.19
10732;BME280;5417;42.686;23.244;2022-12-18T04:02:20;95228.66;;;7.62;72.42
10732;BME280;5417;42.686;23.244;2022-12-18T04:04:51;95210.13;;;7.54;73.26
10732;BME280;5417;42.686;23.244;2022-12-18T04:07:20;95228.00;;;7.58;73.30
10732;BME280;5417;42.686;23.244;2022-12-18T04:09:48;95239.53;;;7.69;72.71
10732;BME280;5417;42.686;23.244;2022-12-18T04:12:18;95240.09;;;7.74;72.15
10732;BME280;5417;42.686;23.244;2022-12-18T04:14:45;95255.25;;;7.66;71.44
10732;BME280;5417;42.686;23.244;2022-12-18T04:17:12;95246.16;;;7.43;71.77
10732;BME280;5417;42.686;23.244;2022-12-18T04:19:39;95264.63;;;7.37;72.78
10732;BME280;5417;42.686;23.244;2022-12-18T04:22:08;95264.81;;;7.34;73.14
10732;BME280;5417;42.686;23.244;2022-12-18T04:24:36;95273.81;;;7.42;72.03
10732;BME280;5417;42.686;23.244;2022-12-18T04:27:03;95281.16;;;7.50;71.68
10732;BME280;5417;42.686;23.244;2022-12-18T04:29:32;95275.50;;;7.43;72.29
10732;BME280;5417;42.686;23.244;2022-12-18T04:32:00;95276.06;;;7.48;72.47
10732;BME280;5417;42.686;23.244;2022-12-18T04:34:27;95283.50;;;7.54;71.24
10732;BME280;5417;42.686;23.244;2022-12-18T04:36:54;95277.50;;;7.54;69.97
10732;BME280;5417;42.686;23.244;2022-12-18T04:39:20;95291.28;;;7.54;71.60
10732;BME280;5417;42.686;23.244;2022-12-18T04:41:47;95301.91;;;7.50;70.34
10732;BME280;5417;42.686;23.244;2022-12-18T04:44:14;95301.13;;;7.48;71.96
10732;BME280;5417;42.686;23.244;2022-12-18T04:46:42;95310.66;;;7.63;70.20
10732;BME280;5417;42.686;23.244;2022-12-18T04:49:09;95307.41;;;7.59;69.43
10732;BME280;5417;42.686;23.244;2022-12-18T04:51:37;95304.16;;;7.56;70.19
10732;BME280;5417;42.686;23.244;2022-12-18T04:54:04;95312.66;;;7.58;71.49
10732;BME280;5417;42.686;23.244;2022-12-18T04:56:31;95311.75;;;7.59;70.11
10732;BME280;5417;42.686;23.244;2022-12-18T04:58:58;95312.56;;;7.59;69.55
10732;BME280;5417;42.686;23.244;2022-12-18T05:01:25;95316.09;;;7.58;68.98
10732;BME280;5417;42.686;23.244;2022-12-18T05:03:53;95322.53;;;7.51;69.63
10732;BME280;5417;42.686;23.244;2022-12-18T05:06:20;95330.47;;;7.48;69.68
10732;BME280;5417;42.686;23.244;2022-12-18T05:08:47;95334.81;;;7.48;69.69
10732;BME280;5417;42.686;23.244;2022-12-18T05:11:15;95327.22;;;7.45;69.57
10732;BME280;5417;42.686;23.244;2022-12-18T05:13:42;95335.22;;;7.40;69.82
10732;BME280;5417;42.686;23.244;2022-12-18T05:16:10;95342.25;;;7.38;69.70
10732;BME280;5417;42.686;23.244;2022-12-18T05:18:38;95347.94;;;7.45;69.59
10732;BME280;5417;42.686;23.244;2022-12-18T05:21:07;95355.63;;;7.46;70.08
10732;BME280;5417;42.686;23.244;2022-12-18T05:23:35;95354.69;;;7.47;70.51
10732;BME280;5417;42.686;23.244;2022-12-18T05:26:04;95351.28;;;7.47;69.98
10732;BME280;5417;42.686;23.244;2022-12-18T05:28:32;95355.38;;;7.51;70.40
10732;BME280;5417;42.686;23.244;2022-12-18T05:31:01;95368.16;;;7.54;70.13
10732;BME280;5417;42.686;23.244;2022-12-18T05:33:31;95356.63;;;7.59;69.08
10732;BME280;5417;42.686;23.244;2022-12-18T05:35:59;95365.47;;;7.55;69.29
10732;BME280;5417;42.686;23.244;2022-12-18T05:38:28;95366.72;;;7.48;68.63
10732;BME280;5417;42.686;23.244;2022-12-18T05:40:56;95365.56;;;7.38;67.88
10732;BME280;5417;42.686;23.244;2022-12-18T05:43:26;95386.13;;;7.41;69.09
10732;BME280;5417;42.686;23.244;2022-12-18T05:45:53;95382.34;;;7.47;67.54
10732;BME280;5417;42.686;23.244;2022-12-18T05:48:21;95390.63;;;7.38;69.11
10732;BME280;5417;42.686;23.244;2022-12-18T05:50:49;95387.88;;;7.41;69.08
10732;BME280;5417;42.686;23.244;2022-12-18T05:53:19;95395.78;;;7.38;69.00
10732;BME280;5417;42.686;23.244;2022-12-18T05:55:47;95385.19;;;7.42;67.83
10732;BME280;5417;42.686;23.244;2022-12-18T05:58:15;95398.31;;;7.39;68.04
10732;BME280;5417;42.686;23.244;2022-12-18T06:00:44;95396.63;;;7.38;69.56
10732;BME280;5417;42.686;23.244;2022-12-18T06:03:12;95396.38;;;7.43;67.44
10732;BME280;5417;42.686;23.244;2022-12-18T06:05:41;95398.91;;;7.44;67.48
10732;BME280;5417;42.686;23.244;2022-12-18T06:08:08;95408.66;;;7.39;68.00
10732;BME280;5417;42.686;23.244;2022-12-18T06:10:36;95402.72;;;7.37;69.04
10732;BME280;5417;42.686;23.244;2022-12-18T06:13:04;95396.97;;;7.32;68.57
10732;BME280;5417;42.686;23.244;2022-12-18T06:15:31;95406.25;;;7.36;68.78
10732;BME280;5417;42.686;23.244;2022-12-18T06:18:00;95423.22;;;7.42;69.46
10732;BME280;5417;42.686;23.244;2022-12-18T06:20:27;95417.94;;;7.43;69.79
10732;BME280;5417;42.686;23.244;2022-12-18T06:22:54;95421.78;;;7.36;68.69
10732;BME280;5417;42.686;23.244;2022-12-18T06:25:21;95417.22;;;7.24;68.94
10732;BME280;5417;42.686;23.244;2022-12-18T06:27:47;95424.22;;;7.22;69.28
10732;BME280;5417;42.686;23.244;2022-12-18T06:30:16;95415.38;;;7.26;68.51
10732;BME280;5417;42.686;23.244;2022-12-18T06:32:43;95427.13;;;7.16;69.59
10732;BME280;5417;42.686;23.244;2022-12-18T06:35:10;95430.16;;;7.24;69.43
10732;BME280;5417;42.686;23.244;2022-12-18T06:37:37;95434.81;;;7.35;66.99
10732;BME280;5417;42.686;23.244;2022-12-18T06:40:05;95445.09;;;7.36;67.54
10732;BME280;5417;42.686;23.244;2022-12-18T06:42:32;95432.31;;;7.16;67.76
10732;BME280;5417;42.686;23.244;2022-12-18T06:44:59;95433.47;;;7.10;69.91
10732;BME280;5417;42.686;23.244;2022-12-18T06:47:28;95440.31;;;7.11;69.89
10732;BME280;5417;42.686;23.244;2022-12-18T06:49:54;95447.84;;;7.16;70.56
10732;BME280;5417;42.686;23.244;2022-12-18T06:52:21;95457.19;;;7.18;70.53
10732;BME280;5417;42.686;23.244;2022-12-18T06:54:48;95453.94;;;7.32;67.92
10732;BME280;5417;42.686;23.244;2022-12-18T06:57:15;95452.94;;;7.35;67.97
10732;BME280;5417;42.686;23.244;2022-12-18T06:59:42;95453.38;;;7.25;68.78
10732;BME280;5417;42.686;23.244;2022-12-18T07:02:11;95457.53;;;7.30;66.71
10732;BME280;5417;42.686;23.244;2022-12-18T07:04:41;95453.31;;;7.27;67.48
10732;BME280;5417;42.686;23.244;2022-12-18T07:07:07;95463.97;;;7.21;67.69
10732;BME280;5417;42.686;23.244;2022-12-18T07:09:34;95453.50;;;7.07;68.27
10732;BME280;5417;42.686;23.244;2022-12-18T07:12:01;95455.94;;;7.10;69.72
10732;BME280;5417;42.686;23.244;2022-12-18T07:14:30;95468.91;;;7.25;68.07
10732;BME280;5417;42.686;23.244;2022-12-18T07:16:57;95466.66;;;7.19;67.76
10732;BME280;5417;42.686;23.244;2022-12-18T07:19:24;95476.75;;;7.24;69.00
10732;BME280;5417;42.686;23.244;2022-12-18T07:21:52;95473.25;;;7.25;67.97
10732;BME280;5417;42.686;23.244;2022-12-18T07:24:19;95474.56;;;7.34;67.22
10732;BME280;5417;42.686;23.244;2022-12-18T07:26:46;95468.84;;;7.27;67.37
10732;BME280;5417;42.686;23.244;2022-12-18T07:29:13;95455.53;;;7.17;68.33
10732;BME280;5417;42.686;23.244;2022-12-18T07:31:40;95474.41;;;7.37;67.93
10732;BME280;5417;42.686;23.244;2022-12-18T07:34:10;95472.72;;;7.36;67.58
10732;BME280;5417;42.686;23.244;2022-12-18T07:36:36;95479.66;;;7.35;67.15
10732;BME280;5417;42.686;23.244;2022-12-18T07:39:05;95489.03;;;7.38;67.38
10732;BME280;5417;42.686;23.244;2022-12-18T07:41:34;95495.22;;;7.35;66.63
10732;BME280;5417;42.686;23.244;2022-12-18T07:44:01;95488.59;;;7.30;66.65
10732;BME280;5417;42.686;23.244;2022-12-18T07:46:28;95492.06;;;7.46;74.55
10732;BME280;5417;42.686;23.244;2022-12-18T07:48:55;95494.56;;;7.47;72.16
10732;BME280;5417;42.686;23.244;2022-12-18T07:51:21;95493.97;;;7.42;69.02
10732;BME280;5417;42.686;23.244;2022-12-18T07:53:48;95500.50;;;7.49;70.22
10732;BME280;5417;42.686;23.244;2022-12-18T07:56:17;95512.03;;;7.44;68.08
10732;BME280;5417;42.686;23.244;2022-12-18T07:58:47;95518.97;;;7.43;66.65
10732;BME280;5417;42.686;23.244;2022-12-18T08:01:14;95515.09;;;7.35;67.03
10732;BME280;5417;42.686;23.244;2022-12-18T08:03:41;95518.66;;;7.32;66.70
10732;BME280;5417;42.686;23.244;2022-12-18T08:06:09;95511.19;;;7.26;67.20
10732;BME280;5417;42.686;23.244;2022-12-18T08:08:37;95517.13;;;7.28;67.50
10732;BME280;5417;42.686;23.244;2022-12-18T08:11:13;95523.63;;;7.37;66.86
10732;BME280;5417;42.686;23.244;2022-12-18T08:13:42;95516.00;;;7.34;66.19
10732;BME280;5417;42.686;23.244;2022-12-18T08:16:12;95528.13;;;7.33;66.49
10732;BME280;5417;42.686;23.244;2022-12-18T08:18:44;95528.28;;;7.30;66.29
10732;BME280;5417;42.686;23.244;2022-12-18T08:21:22;95534.13;;;7.16;66.89
10732;BME280;5417;42.686;23.244;2022-12-18T08:23:55;95540.44;;;7.11;67.80
10732;BME280;5417;42.686;23.244;2022-12-18T08:26:28;95543.63;;;7.16;67.22
10732;BME280;5417;42.686;23.244;2022-12-18T08:29:04;95544.53;;;7.15;67.18
10732;BME280;5417;42.686;23.244;2022-12-18T08:31:31;95543.78;;;7.13;65.87
10732;BME280;5417;42.686;23.244;2022-12-18T08:33:58;95549.88;;;7.12;66.70
10732;BME280;5417;42.686;23.244;2022-12-18T08:36:25;95557.56;;;7.13;66.76
10732;BME280;5417;42.686;23.244;2022-12-18T08:38:52;95559.25;;;7.14;66.54
10732;BME280;5417;42.686;23.244;2022-12-18T08:41:19;95550.25;;;7.21;65.97
10732;BME280;5417;42.686;23.244;2022-12-18T08:43:46;95554.00;;;7.16;66.58
10732;BME280;5417;42.686;23.244;2022-12-18T08:46:37;95565.41;;;7.12;67.03
10732;BME280;5417;42.686;23.244;2022-12-18T08:49:05;95562.75;;;7.13;66.91
10732;BME280;5417;42.686;23.244;2022-12-18T08:51:33;95554.38;;;7.08;67.33
10732;BME280;5417;42.686;23.244;2022-12-18T08:54:00;95558.25;;;7.17;66.49
10732;BME280;5417;42.686;23.244;2022-12-18T08:56:27;95566.63;;;7.22;66.18
10732;BME280;5417;42.686;23.244;2022-12-18T08:58:55;95561.38;;;7.23;66.29
10732;BME280;5417;42.686;23.244;2022-12-18T09:01:23;95552.91;;;7.20;66.07
10732;BME280;5417;42.686;23.244;2022-12-18T09:03:51;95560.16;;;7.13;66.19
10732;BME280;5417;42.686;23.244;2022-12-18T09:06:20;95563.44;;;7.17;66.23
10732;BME280;5417;42.686;23.244;2022-12-18T09:08:47;95566.84;;;7.17;66.41
10732;BME280;5417;42.686;23.244;2022-12-18T09:11:18;95562.97;;;7.26;66.05
10732;BME280;5417;42.686;23.244;2022-12-18T09:13:45;95551.03;;;7.23;65.82
10732;BME280;5417;42.686;23.244;2022-12-18T09:16:12;95553.06;;;7.17;65.35
10732;BME280;5417;42.686;23.244;2022-12-18T09:18:39;95563.59;;;7.14;66.73
10732;BME280;5417;42.686;23.244;2022-12-18T09:21:13;95559.25;;;7.14;65.85
10732;BME280;5417;42.686;23.244;2022-12-18T09:23:40;95546.84;;;7.04;65.81
10732;BME280;5417;42.686;23.244;2022-12-18T09:26:07;95567.25;;;7.10;66.08
10732;BME280;5417;42.686;23.244;2022-12-18T09:28:34;95555.06;;;7.12;66.01
10732;BME280;5417;42.686;23.244;2022-12-18T09:31:04;95555.66;;;7.17;66.10
10732;BME280;5417;42.686;23.244;2022-12-18T09:33:33;95559.16;;;7.16;64.87
10732;BME280;5417;42.686;23.244;2022-12-18T09:36:01;95566.78;;;7.19;63.84
10732;BME280;5417;42.686;23.244;2022-12-18T09:38:30;95566.03;;;7.17;65.34
10732;BME280;5417;42.686;23.244;2022-12-18T09:41:00;95570.06;;;7.22;64.69
10732;BME280;5417;42.686;23.244;2022-12-18T09:43:35;95569.00;;;7.26;64.68
10732;BME280;5417;42.686;23.244;2022-12-18T09:46:09;95559.34;;;7.30;65.46
10732;BME280;5417;42.686;23.244;2022-12-18T09:48:41;95563.72;;;7.28;65.35
10732;BME280;5417;42.686;23.244;2022-12-18T09:51:14;95549.75;;;7.32;64.69
10732;BME280;5417;42.686;23.244;2022-12-18T09:53:47;95557.50;;;7.32;63.03
10732;BME280;5417;42.686;23.244;2022-12-18T09:56:20;95549.06;;;7.28;63.16
10732;BME280;5417;42.686;23.244;2022-12-18T09:58:55;95550.88;;;7.09;63.84
10732;BME280;5417;42.686;23.244;2022-12-18T10:01:25;95552.00;;;7.04;64.79
10732;BME280;5417;42.686;23.244;2022-12-18T10:03:53;95556.97;;;7.08;64.60
10732;BME280;5417;42.686;23.244;2022-12-18T10:06:25;95555.06;;;7.12;64.65
10732;BME280;5417;42.686;23.244;2022-12-18T10:09:01;95559.53;;;7.25;65.37
10732;BME280;5417;42.686;23.244;2022-12-18T10:11:40;95545.69;;;7.26;64.41
10732;BME280;5417;42.686;23.244;2022-12-18T10:14:15;95541.28;;;7.28;62.81
10732;BME280;5417;42.686;23.244;2022-12-18T10:16:54;95533.44;;;6.95;62.97
10732;BME280;5417;42.686;23.244;2022-12-18T10:19:35;95549.66;;;6.99;63.93
10732;BME280;5417;42.686;23.244;2022-12-18T10:22:12;95551.94;;;6.88;64.49
10732;BME280;5417;42.686;23.244;2022-12-18T10:24:49;95557.03;;;6.89;64.82
10732;BME280;5417;42.686;23.244;2022-12-18T10:27:23;95560.75;;;7.01;63.94
10732;BME280;5417;42.686;23.244;2022-12-18T10:29:50;95567.25;;;7.10;64.75
10732;BME280;5417;42.686;23.244;2022-12-18T10:32:26;95566.09;;;7.15;63.57
10732;BME280;5417;42.686;23.244;2022-12-18T10:34:54;95559.00;;;7.19;64.32
10732;BME280;5417;42.686;23.244;2022-12-18T10:37:26;95560.53;;;7.23;63.21
10732;BME280;5417;42.686;23.244;2022-12-18T10:40:16;95561.69;;;7.35;62.71
10732;BME280;5417;42.686;23.244;2022-12-18T10:42:43;95558.88;;;7.39;62.37
10732;BME280;5417;42.686;23.244;2022-12-18T10:45:14;95563.16;;;7.40;62.27
10732;BME280;5417;42.686;23.244;2022-12-18T10:47:43;95558.34;;;7.33;63.16
10732;BME280;5417;42.686;23.244;2022-12-18T10:50:28;95562.22;;;7.41;62.70
10732;BME280;5417;42.686;23.244;2022-12-18T10:52:57;95559.56;;;7.43;60.24
10732;BME280;5417;42.686;23.244;2022-12-18T10:55:28;95552.34;;;7.32;61.02
10732;BME280;5417;42.686;23.244;2022-12-18T10:58:13;95549.03;;;7.46;61.96
10732;BME280;5417;42.686;23.244;2022-12-18T11:00:43;95545.53;;;7.47;62.18
10732;BME280;5417;42.686;23.244;2022-12-18T11:03:30;95551.31;;;7.52;61.21
10732;BME280;5417;42.686;23.244;2022-12-18T11:06:03;95554.97;;;7.48;60.99
10732;BME280;5417;42.686;23.244;2022-12-18T11:08:30;95547.59;;;7.40;61.15
10732;BME280;5417;42.686;23.244;2022-12-18T11:10:59;95551.63;;;7.46;59.79
10732;BME280;5417;42.686;23.244;2022-12-18T11:13:28;95561.00;;;7.48;60.82
10732;BME280;5417;42.686;23.244;2022-12-18T11:15:57;95570.59;;;7.46;59.32
10732;BME280;5417;42.686;23.244;2022-12-18T11:18:27;95562.31;;;7.40;59.91
10732;BME280;5417;42.686;23.244;2022-12-18T11:20:55;95564.06;;;7.39;60.01
10732;BME280;5417;42.686;23.244;2022-12-18T11:23:24;95566.09;;;7.50;59.78
10732;BME280;5417;42.686;23.244;2022-12-18T11:25:54;95562.84;;;7.46;58.71
10732;BME280;5417;42.686;23.244;2022-12-18T11:28:33;95563.59;;;7.31;58.28
10732;BME280;5417;42.686;23.244;2022-12-18T11:31:18;95573.97;;;7.31;58.93
10732;BME280;5417;42.686;23.244;2022-12-18T14:09:15;95638.03;;;7.45;58.72
10732;BME280;5417;42.686;23.244;2022-12-18T14:11:46;95640.78;;;7.42;59.43
10732;BME280;5417;42.686;23.244;2022-12-18T14:14:15;95641.47;;;7.45;58.70
10732;BME280;5417;42.686;23.244;2022-12-18T14:16:43;95629.66;;;7.40;59.26
10732;BME280;5417;42.686;23.244;2022-12-18T14:19:14;95636.81;;;7.52;58.05
10732;BME280;5417;42.686;23.244;2022-12-18T14:21:50;95620.88;;;7.42;57.58
10732;BME280;5417;42.686;23.244;2022-12-18T14:24:20;95641.22;;;7.50;58.51
10732;BME280;5417;42.686;23.244;2022-12-18T14:26:48;95648.09;;;7.51;58.48
10732;BME280;5417;42.686;23.244;2022-12-18T14:29:22;95650.44;;;7.55;57.76
10732;BME280;5417;42.686;23.244;2022-12-18T14:32:12;95648.84;;;7.53;58.71
10732;BME280;5417;42.686;23.244;2022-12-18T14:34:42;95658.97;;;7.57;59.26
10732;BME280;5417;42.686;23.244;2022-12-18T14:37:10;95656.25;;;7.60;58.17
10732;BME280;5417;42.686;23.244;2022-12-18T14:39:40;95643.13;;;7.46;57.44
10732;BME280;5417;42.686;23.244;2022-12-18T14:42:10;95647.41;;;7.65;56.53
10732;BME280;5417;42.686;23.244;2022-12-18T14:44:37;95649.69;;;7.53;56.50
10732;BME280;5417;42.686;23.244;2022-12-18T14:47:04;95637.94;;;7.46;57.26
10732;BME280;5417;42.686;23.244;2022-12-18T14:49:33;95645.34;;;7.37;57.10
10732;BME280;5417;42.686;23.244;2022-12-18T14:52:03;95652.50;;;7.32;56.64
10732;BME280;5417;42.686;23.244;2022-12-18T14:54:32;95650.16;;;7.25;57.63
10732;BME280;5417;42.686;23.244;2022-12-18T14:57:04;95650.31;;;7.22;58.14
10732;BME280;5417;42.686;23.244;2022-12-18T14:59:31;95645.91;;;7.24;58.59
10732;BME280;5417;42.686;23.244;2022-12-18T15:02:02;95649.91;;;7.32;58.54
10732;BME280;5417;42.686;23.244;2022-12-18T15:04:32;95650.06;;;7.28;58.13
10732;BME280;5417;42.686;23.244;2022-12-18T15:07:13;95649.59;;;7.38;56.66
10732;BME280;5417;42.686;23.244;2022-12-18T15:09:42;95649.97;;;7.30;54.42
10732;BME280;5417;42.686;23.244;2022-12-18T15:12:33;95660.59;;;7.24;55.88
10732;BME280;5417;42.686;23.244;2022-12-18T15:15:00;95658.94;;;7.23;56.57
10732;BME280;5417;42.686;23.244;2022-12-18T15:17:29;95642.63;;;7.21;56.18
10732;BME280;5417;42.686;23.244;2022-12-18T15:20:00;95651.16;;;7.23;55.96
10732;BME280;5417;42.686;23.244;2022-12-18T15:22:29;95658.47;;;7.15;56.07
10732;BME280;5417;42.686;23.244;2022-12-18T15:24:58;95663.03;;;7.10;56.37
10732;BME280;5417;42.686;23.244;2022-12-18T15:27:30;95660.34;;;7.11;55.00
10732;BME280;5417;42.686;23.244;2022-12-18T15:30:19;95665.59;;;7.10;56.93
10732;BME280;5417;42.686;23.244;2022-12-18T15:32:46;95672.69;;;7.06;56.09
10732;BME280;5417;42.686;23.244;2022-12-18T15:35:17;95669.97;;;6.90;56.40
10732;BME280;5417;42.686;23.244;2022-12-18T15:38:25;95669.91;;;6.73;57.61
10732;BME280;5417;42.686;23.244;2022-12-18T15:41:35;95669.56;;;6.62;56.74
10732;BME280;5417;42.686;23.244;2022-12-18T15:44:21;95686.63;;;6.66;58.17
10732;BME280;5417;42.686;23.244;2022-12-18T15:46:48;95693.81;;;6.59;58.37
10732;BME280;5417;42.686;23.244;2022-12-18T15:49:15;95695.28;;;6.65;58.08
10732;BME280;5417;42.686;23.244;2022-12-18T15:51:42;95703.59;;;6.72;57.97
10732;BME280;5417;42.686;23.244;2022-12-18T15:54:11;95702.63;;;6.74;56.84
10732;BME280;5417;42.686;23.244;2022-12-18T15:56:41;95704.53;;;6.89;55.34
10732;BME280;5417;42.686;23.244;2022-12-18T15:59:27;95705.09;;;6.77;56.96
10732;BME280;5417;42.686;23.244;2022-12-18T16:01:54;95717.75;;;6.83;56.91
10732;BME280;5417;42.686;23.244;2022-12-18T16:04:21;95727.28;;;6.83;56.61